sensor_id;sensor_type;location;lat;lon;timestamp;pressure;altitude;pressure_sealevel;temperature;humidity
69622;BME280;56841;55.964;37.674;2023-01-29T00:02:16;99765.25;;;-2.60;81.04
69622;BME280;56841;55.964;37.674;2023-01-29T00:04:42;99762.22;;;-2.69;81.16
69622;BME280;56841;55.964;37.674;2023-01-29T00:07:07;99761.28;;;-2.83;81.43
69622;BME280;56841;55.964;37.674;2023-01-29T00:09:33;99749.78;;;-2.78;81.02
69622;BME280;56841;55.964;37.674;2023-01-29T00:11:59;99759.13;;;-2.75;80.88
69622;BME280;56841;55.964;37.674;2023-01-29T00:14:25;99752.16;;;-2.73;80.15
69622;BME280;56841;55.964;37.674;2023-01-29T00:16:53;99748.19;;;-2.80;80.61
69622;BME280;56841;55.964;37.674;2023-01-29T00:19:19;99756.78;;;-2.80;80.01
69622;BME280;56841;55.964;37.674;2023-01-29T00:21:45;99750.41;;;-2.73;79.54
69622;BME280;56841;55.964;37.674;2023-01-29T00:24:10;99742.69;;;-2.74;79.26
69622;BME280;56841;55.964;37.674;2023-01-29T00:26:36;99748.03;;;-2.77;79.03
69622;BME280;56841;55.964;37.674;2023-01-29T00:29:04;99742.13;;;-2.64;78.12
69622;BME280;56841;55.964;37.674;2023-01-29T00:31:30;99749.06;;;-2.64;78.35
69622;BME280;56841;55.964;37.674;2023-01-29T00:33:56;99730.16;;;-2.49;77.67
69622;BME280;56841;55.964;37.674;2023-01-29T00:36:22;99721.88;;;-2.40;77.38
69622;BME280;56841;55.964;37.674;2023-01-29T00:38:53;99717.81;;;-2.44;77.19
69622;BME280;56841;55.964;37.674;2023-01-29T00:41:26;99716.16;;;-2.45;77.19
69622;BME280;56841;55.964;37.674;2023-01-29T00:44:11;99718.47;;;-2.40;77.35
69622;BME280;56841;55.964;37.674;2023-01-29T00:46:57;99711.75;;;-2.43;77.18
69622;BME280;56841;55.964;37.674;2023-01-29T00:49:24;99708.63;;;-2.33;76.53
69622;BME280;56841;55.964;37.674;2023-01-29T00:51:51;99711.06;;;-2.30;76.40
69622;BME280;56841;55.964;37.674;2023-01-29T00:54:35;99709.47;;;-2.33;75.81
69622;BME280;56841;55.964;37.674;2023-01-29T00:57:01;99700.88;;;-2.33;75.51
69622;BME280;56841;55.964;37.674;2023-01-29T00:59:27;99708.06;;;-2.39;75.17
69622;BME280;56841;55.964;37.674;2023-01-29T01:01:52;99702.97;;;-2.40;74.75
69622;BME280;56841;55.964;37.674;2023-01-29T01:04:37;99704.28;;;-2.33;75.11
69622;BME280;56841;55.964;37.674;2023-01-29T01:07:03;99701.53;;;-2.30;74.84
69622;BME280;56841;55.964;37.674;2023-01-29T01:09:28;99706.88;;;-2.33;74.36
69622;BME280;56841;55.964;37.674;2023-01-29T01:12:13;99707.91;;;-2.35;74.79
69622;BME280;56841;55.964;37.674;2023-01-29T01:14:38;99714.50;;;-2.46;74.72
69622;BME280;56841;55.964;37.674;2023-01-29T01:17:08;99717.66;;;-2.41;74.99
69622;BME280;56841;55.964;37.674;2023-01-29T01:19:34;99722.81;;;-2.41;74.89
69622;BME280;56841;55.964;37.674;2023-01-29T01:22:00;99721.00;;;-2.39;74.83
69622;BME280;56841;55.964;37.674;2023-01-29T01:24:26;99710.13;;;-2.29;74.81
69622;BME280;56841;55.964;37.674;2023-01-29T01:26:51;99714.50;;;-2.46;74.43
69622;BME280;56841;55.964;37.674;2023-01-29T01:29:17;99708.38;;;-2.45;74.33
69622;BME280;56841;55.964;37.674;2023-01-29T01:31:43;99704.16;;;-2.46;74.36
69622;BME280;56841;55.964;37.674;2023-01-29T01:34:10;99700.03;;;-2.50;74.42
69622;BME280;56841;55.964;37.674;2023-01-29T01:36:35;99698.38;;;-2.51;74.49
69622;BME280;56841;55.964;37.674;2023-01-29T01:39:01;99702.97;;;-2.40;73.84
69622;BME280;56841;55.964;37.674;2023-01-29T01:41:28;99692.44;;;-2.37;74.36
69622;BME280;56841;55.964;37.674;2023-01-29T01:43:58;99694.53;;;-2.28;74.00
69622;BME280;56841;55.964;37.674;2023-01-29T01:46:29;99683.69;;;-2.34;74.09
69622;BME280;56841;55.964;37.674;2023-01-29T01:49:06;99686.94;;;-2.31;73.67
69622;BME280;56841;55.964;37.674;2023-01-29T01:51:35;99685.03;;;-2.59;73.54
69622;BME280;56841;55.964;37.674;2023-01-29T01:54:10;99685.59;;;-2.54;74.38
69622;BME280;56841;55.964;37.674;2023-01-29T01:56:41;99679.44;;;-2.51;74.38
69622;BME280;56841;55.964;37.674;2023-01-29T01:59:11;99676.53;;;-2.45;74.18
69622;BME280;56841;55.964;37.674;2023-01-29T02:01:40;99668.50;;;-2.56;74.34
69622;BME280;56841;55.964;37.674;2023-01-29T02:04:14;99668.94;;;-2.64;74.33
69622;BME280;56841;55.964;37.674;2023-01-29T02:07:02;99664.50;;;-2.62;74.17
69622;BME280;56841;55.964;37.674;2023-01-29T02:09:51;99660.84;;;-2.58;73.96
69622;BME280;56841;55.964;37.674;2023-01-29T02:12:20;99665.09;;;-2.57;74.00
69622;BME280;56841;55.964;37.674;2023-01-29T02:14:47;99659.25;;;-2.60;73.71
69622;BME280;56841;55.964;37.674;2023-01-29T02:17:15;99658.75;;;-2.67;73.74
69622;BME280;56841;55.964;37.674;2023-01-29T02:20:02;99643.91;;;-2.48;73.91
69622;BME280;56841;55.964;37.674;2023-01-29T02:31:34;99630.41;;;-2.53;73.70
69622;BME280;56841;55.964;37.674;2023-01-29T02:34:17;99619.06;;;-2.50;73.63
69622;BME280;56841;55.964;37.674;2023-01-29T02:37:08;99614.06;;;-2.69;73.74
69622;BME280;56841;55.964;37.674;2023-01-29T02:39:43;99615.84;;;-2.70;73.58
69622;BME280;56841;55.964;37.674;2023-01-29T02:42:56;99614.91;;;-2.53;73.42
69622;BME280;56841;55.964;37.674;2023-01-29T02:46:05;99615.25;;;-2.59;73.35
69622;BME280;56841;55.964;37.674;2023-01-29T02:48:48;99608.22;;;-2.57;73.35
69622;BME280;56841;55.964;37.674;2023-01-29T02:51:23;99598.31;;;-2.65;73.12
69622;BME280;56841;55.964;37.674;2023-01-29T02:54:01;99599.16;;;-2.80;73.55
69622;BME280;56841;55.964;37.674;2023-01-29T02:56:55;99584.97;;;-2.89;73.73
69622;BME280;56841;55.964;37.674;2023-01-29T02:59:31;99585.22;;;-2.77;73.92
69622;BME280;56841;55.964;37.674;2023-01-29T03:02:05;99580.97;;;-2.78;73.96
69622;BME280;56841;55.964;37.674;2023-01-29T03:04:38;99587.97;;;-2.65;73.74
69622;BME280;56841;55.964;37.674;2023-01-29T03:07:09;99582.13;;;-2.68;73.93
69622;BME280;56841;55.964;37.674;2023-01-29T03:09:58;99580.53;;;-2.71;73.60
69622;BME280;56841;55.964;37.674;2023-01-29T03:12:28;99579.88;;;-2.74;73.68
69622;BME280;56841;55.964;37.674;2023-01-29T03:15:13;99568.47;;;-2.86;73.72
69622;BME280;56841;55.964;37.674;2023-01-29T03:17:57;99566.22;;;-2.76;73.89
69622;BME280;56841;55.964;37.674;2023-01-29T03:20:30;99567.63;;;-2.71;73.60
69622;BME280;56841;55.964;37.674;2023-01-29T03:23:10;99550.88;;;-2.79;73.59
69622;BME280;56841;55.964;37.674;2023-01-29T03:25:40;99550.72;;;-2.76;73.69
69622;BME280;56841;55.964;37.674;2023-01-29T03:28:29;99549.03;;;-2.77;73.53
69622;BME280;56841;55.964;37.674;2023-01-29T03:31:14;99534.03;;;-2.71;73.24
69622;BME280;56841;55.964;37.674;2023-01-29T03:34:12;99531.19;;;-2.66;73.16
69622;BME280;56841;55.964;37.674;2023-01-29T03:36:48;99529.50;;;-2.67;73.60
69622;BME280;56841;55.964;37.674;2023-01-29T03:39:21;99521.75;;;-2.67;73.10
69622;BME280;56841;55.964;37.674;2023-01-29T03:44:18;99529.16;;;-2.61;73.20
69622;BME280;56841;55.964;37.674;2023-01-29T03:46:56;99529.94;;;-2.59;73.14
69622;BME280;56841;55.964;37.674;2023-01-29T04:00:44;99497.28;;;-2.46;73.05
69622;BME280;56841;55.964;37.674;2023-01-29T04:03:21;99492.66;;;-2.41;73.01
69622;BME280;56841;55.964;37.674;2023-01-29T04:05:57;99483.34;;;-2.43;72.76
69622;BME280;56841;55.964;37.674;2023-01-29T04:09:13;99478.91;;;-2.41;73.07
69622;BME280;56841;55.964;37.674;2023-01-29T04:11:46;99486.19;;;-2.48;72.89
69622;BME280;56841;55.964;37.674;2023-01-29T04:14:15;99486.03;;;-2.45;72.93
69622;BME280;56841;55.964;37.674;2023-01-29T04:16:47;99490.25;;;-2.44;72.93
69622;BME280;56841;55.964;37.674;2023-01-29T04:19:38;99493.47;;;-2.54;72.91
69622;BME280;56841;55.964;37.674;2023-01-29T04:22:17;99481.84;;;-2.47;73.03
69622;BME280;56841;55.964;37.674;2023-01-29T04:24:46;99483.22;;;-2.56;73.06
69622;BME280;56841;55.964;37.674;2023-01-29T04:41:21;99478.44;;;-2.48;73.01
69622;BME280;56841;55.964;37.674;2023-01-29T04:44:04;99475.69;;;-2.45;72.83
69622;BME280;56841;55.964;37.674;2023-01-29T04:46:34;99480.63;;;-2.56;72.89
69622;BME280;56841;55.964;37.674;2023-01-29T04:55:31;99467.31;;;-2.64;73.46
69622;BME280;56841;55.964;37.674;2023-01-29T05:00:49;99467.41;;;-2.66;73.34
69622;BME280;56841;55.964;37.674;2023-01-29T05:03:20;99464.88;;;-2.67;73.20
69622;BME280;56841;55.964;37.674;2023-01-29T05:05:49;99456.41;;;-2.69;73.14
69622;BME280;56841;55.964;37.674;2023-01-29T05:08:19;99458.91;;;-2.68;73.11
69622;BME280;56841;55.964;37.674;2023-01-29T05:10:48;99459.81;;;-2.69;73.14
69622;BME280;56841;55.964;37.674;2023-01-29T05:13:14;99452.25;;;-2.72;72.91
69622;BME280;56841;55.964;37.674;2023-01-29T05:15:53;99450.91;;;-2.63;72.85
69622;BME280;56841;55.964;37.674;2023-01-29T05:18:21;99456.31;;;-2.68;72.88
69622;BME280;56841;55.964;37.674;2023-01-29T05:20:47;99463.16;;;-2.67;73.05
69622;BME280;56841;55.964;37.674;2023-01-29T05:23:21;99465.81;;;-2.68;72.96
69622;BME280;56841;55.964;37.674;2023-01-29T05:25:48;99469.16;;;-2.66;73.12
69622;BME280;56841;55.964;37.674;2023-01-29T05:28:14;99463.81;;;-2.63;73.00
69622;BME280;56841;55.964;37.674;2023-01-29T05:30:43;99464.00;;;-2.66;73.11
69622;BME280;56841;55.964;37.674;2023-01-29T05:33:22;99465.81;;;-2.68;72.96
69622;BME280;56841;55.964;37.674;2023-01-29T05:35:48;99463.81;;;-2.63;72.99
69622;BME280;56841;55.964;37.674;2023-01-29T05:38:14;99467.47;;;-2.67;73.14
69622;BME280;56841;55.964;37.674;2023-01-29T05:40:40;99455.31;;;-2.65;72.88
69622;BME280;56841;55.964;37.674;2023-01-29T05:43:18;99461.09;;;-2.76;73.03
69622;BME280;56841;55.964;37.674;2023-01-29T05:45:58;99463.34;;;-2.70;73.17
69622;BME280;56841;55.964;37.674;2023-01-29T05:48:25;99472.03;;;-2.56;72.48
69622;BME280;56841;55.964;37.674;2023-01-29T05:50:53;99466.03;;;-2.57;72.67
69622;BME280;56841;55.964;37.674;2023-01-29T05:53:19;99461.63;;;-2.55;72.59
69622;BME280;56841;55.964;37.674;2023-01-29T05:55:45;99457.00;;;-2.50;72.50
69622;BME280;56841;55.964;37.674;2023-01-29T05:58:11;99455.84;;;-2.30;71.73
69622;BME280;56841;55.964;37.674;2023-01-29T06:00:37;99460.06;;;-2.43;71.68
69622;BME280;56841;55.964;37.674;2023-01-29T06:03:03;99457.94;;;-2.51;72.11
69622;BME280;56841;55.964;37.674;2023-01-29T06:05:28;99447.13;;;-2.43;71.75
69622;BME280;56841;55.964;37.674;2023-01-29T06:07:54;99452.09;;;-2.54;71.93
69622;BME280;56841;55.964;37.674;2023-01-29T06:10:19;99445.78;;;-2.65;72.01
69622;BME280;56841;55.964;37.674;2023-01-29T06:12:45;99446.97;;;-2.70;71.96
69622;BME280;56841;55.964;37.674;2023-01-29T06:15:11;99443.31;;;-2.66;71.70
69622;BME280;56841;55.964;37.674;2023-01-29T06:17:40;99433.34;;;-2.58;72.07
69622;BME280;56841;55.964;37.674;2023-01-29T06:20:07;99424.13;;;-2.48;72.00
69622;BME280;56841;55.964;37.674;2023-01-29T06:22:33;99429.41;;;-2.49;71.66
69622;BME280;56841;55.964;37.674;2023-01-29T06:24:58;99414.72;;;-2.49;70.63
69622;BME280;56841;55.964;37.674;2023-01-29T06:27:24;99416.00;;;-2.56;70.53
69622;BME280;56841;55.964;37.674;2023-01-29T06:29:50;99419.78;;;-2.62;70.68
69622;BME280;56841;55.964;37.674;2023-01-29T06:32:15;99426.19;;;-2.53;69.98
69622;BME280;56841;55.964;37.674;2023-01-29T06:34:41;99410.66;;;-2.53;70.29
69622;BME280;56841;55.964;37.674;2023-01-29T06:37:06;99411.38;;;-2.51;70.42
69622;BME280;56841;55.964;37.674;2023-01-29T06:39:32;99409.00;;;-2.40;70.36
69622;BME280;56841;55.964;37.674;2023-01-29T06:41:58;99414.00;;;-2.36;70.62
69622;BME280;56841;55.964;37.674;2023-01-29T06:44:25;99410.38;;;-2.48;70.53
69622;BME280;56841;55.964;37.674;2023-01-29T06:46:51;99399.03;;;-2.31;70.60
69622;BME280;56841;55.964;37.674;2023-01-29T06:49:17;99397.47;;;-2.34;70.77
69622;BME280;56841;55.964;37.674;2023-01-29T06:51:43;99396.94;;;-2.25;70.08
69622;BME280;56841;55.964;37.674;2023-01-29T06:54:09;99393.59;;;-2.27;70.01
69622;BME280;56841;55.964;37.674;2023-01-29T06:56:35;99389.81;;;-2.07;69.95
69622;BME280;56841;55.964;37.674;2023-01-29T06:59:01;99374.63;;;-1.99;69.32
69622;BME280;56841;55.964;37.674;2023-01-29T07:01:27;99378.81;;;-2.10;69.15
69622;BME280;56841;55.964;37.674;2023-01-29T07:03:52;99377.06;;;-2.10;68.93
69622;BME280;56841;55.964;37.674;2023-01-29T07:06:18;99379.00;;;-2.13;68.68
69622;BME280;56841;55.964;37.674;2023-01-29T07:08:44;99387.22;;;-2.07;68.92
69622;BME280;56841;55.964;37.674;2023-01-29T07:11:10;99366.41;;;-2.05;68.72
69622;BME280;56841;55.964;37.674;2023-01-29T07:13:36;99371.50;;;-2.04;68.31
69622;BME280;56841;55.964;37.674;2023-01-29T07:16:04;99370.41;;;-2.00;68.20
69622;BME280;56841;55.964;37.674;2023-01-29T07:18:30;99365.78;;;-1.95;68.47
69622;BME280;56841;55.964;37.674;2023-01-29T07:20:56;99370.41;;;-2.00;68.14
69622;BME280;56841;55.964;37.674;2023-01-29T07:23:22;99367.41;;;-1.79;68.37
69622;BME280;56841;55.964;37.674;2023-01-29T07:25:49;99360.56;;;-1.80;67.79
69622;BME280;56841;55.964;37.674;2023-01-29T07:28:16;99367.97;;;-1.74;67.63
69622;BME280;56841;55.964;37.674;2023-01-29T07:30:42;99366.28;;;-1.75;67.81
69622;BME280;56841;55.964;37.674;2023-01-29T07:33:08;99363.34;;;-1.83;67.52
69622;BME280;56841;55.964;37.674;2023-01-29T07:35:42;99359.75;;;-1.81;67.86
69622;BME280;56841;55.964;37.674;2023-01-29T07:38:09;99352.88;;;-1.82;67.88
69622;BME280;56841;55.964;37.674;2023-01-29T07:40:35;99351.88;;;-1.79;67.92
69622;BME280;56841;55.964;37.674;2023-01-29T07:43:03;99353.94;;;-1.84;67.69
69622;BME280;56841;55.964;37.674;2023-01-29T07:45:36;99339.19;;;-1.70;67.51
69622;BME280;56841;55.964;37.674;2023-01-29T07:48:05;99340.22;;;-1.72;67.42
69622;BME280;56841;55.964;37.674;2023-01-29T07:50:33;99329.13;;;-1.74;67.10
69622;BME280;56841;55.964;37.674;2023-01-29T07:53:00;99341.91;;;-1.85;67.44
69622;BME280;56841;55.964;37.674;2023-01-29T07:55:26;99347.44;;;-1.92;67.55
69622;BME280;56841;55.964;37.674;2023-01-29T07:57:58;99336.91;;;-1.74;67.37
69622;BME280;56841;55.964;37.674;2023-01-29T08:00:24;99344.63;;;-1.60;67.09
69622;BME280;56841;55.964;37.674;2023-01-29T08:02:50;99337.06;;;-1.63;66.61
69622;BME280;56841;55.964;37.674;2023-01-29T08:05:16;99336.91;;;-1.74;66.62
69622;BME280;56841;55.964;37.674;2023-01-29T08:07:42;99334.09;;;-1.71;66.56
69622;BME280;56841;55.964;37.674;2023-01-29T08:10:08;99321.50;;;-1.63;66.41
69622;BME280;56841;55.964;37.674;2023-01-29T08:12:34;99334.22;;;-1.73;66.18
69622;BME280;56841;55.964;37.674;2023-01-29T08:14:59;99329.66;;;-1.69;66.24
69622;BME280;56841;55.964;37.674;2023-01-29T08:17:25;99328.19;;;-1.73;66.22
69622;BME280;56841;55.964;37.674;2023-01-29T08:19:51;99324.94;;;-1.62;65.93
69622;BME280;56841;55.964;37.674;2023-01-29T08:22:17;99328.47;;;-1.51;65.48
69622;BME280;56841;55.964;37.674;2023-01-29T08:24:42;99331.81;;;-1.49;65.10
69622;BME280;56841;55.964;37.674;2023-01-29T08:27:08;99330.88;;;-1.48;65.30
69622;BME280;56841;55.964;37.674;2023-01-29T08:29:36;99329.22;;;-1.49;64.98
69622;BME280;56841;55.964;37.674;2023-01-29T08:32:01;99334.41;;;-1.49;64.87
69622;BME280;56841;55.964;37.674;2023-01-29T08:34:27;99328.09;;;-1.45;64.62
69622;BME280;56841;55.964;37.674;2023-01-29T08:36:52;99337.31;;;-1.53;64.56
69622;BME280;56841;55.964;37.674;2023-01-29T08:39:18;99333.28;;;-1.45;64.67
69622;BME280;56841;55.964;37.674;2023-01-29T08:41:44;99336.88;;;-1.47;64.68
69622;BME280;56841;55.964;37.674;2023-01-29T08:44:10;99335.03;;;-1.45;64.80
69622;BME280;56841;55.964;37.674;2023-01-29T08:46:35;99334.22;;;-1.46;64.84
69622;BME280;56841;55.964;37.674;2023-01-29T08:49:02;99326.94;;;-1.53;65.12
69622;BME280;56841;55.964;37.674;2023-01-29T08:51:27;99329.63;;;-1.55;65.40
69622;BME280;56841;55.964;37.674;2023-01-29T08:53:53;99336.38;;;-1.52;65.47
69622;BME280;56841;55.964;37.674;2023-01-29T08:56:19;99333.13;;;-1.56;65.52
69622;BME280;56841;55.964;37.674;2023-01-29T08:58:46;99325.00;;;-1.50;65.48
69622;BME280;56841;55.964;37.674;2023-01-29T09:01:13;99328.16;;;-1.59;65.71
69622;BME280;56841;55.964;37.674;2023-01-29T09:03:39;99333.72;;;-1.65;65.68
69622;BME280;56841;55.964;37.674;2023-01-29T09:06:10;99332.31;;;-1.56;66.00
69622;BME280;56841;55.964;37.674;2023-01-29T09:08:36;99326.19;;;-1.55;65.44
69622;BME280;56841;55.964;37.674;2023-01-29T09:11:02;99323.66;;;-1.42;65.65
69622;BME280;56841;55.964;37.674;2023-01-29T09:13:28;99308.56;;;-1.36;65.40
69622;BME280;56841;55.964;37.674;2023-01-29T09:15:57;99313.38;;;-1.44;65.54
69622;BME280;56841;55.964;37.674;2023-01-29T09:18:23;99317.41;;;-1.53;65.67
69622;BME280;56841;55.964;37.674;2023-01-29T09:20:49;99307.88;;;-1.52;65.88
69622;BME280;56841;55.964;37.674;2023-01-29T09:23:15;99298.34;;;-1.52;65.63
69622;BME280;56841;55.964;37.674;2023-01-29T09:25:41;99294.31;;;-1.56;66.21
69622;BME280;56841;55.964;37.674;2023-01-29T09:28:07;99294.81;;;-1.63;66.21
69622;BME280;56841;55.964;37.674;2023-01-29T09:30:33;99299.88;;;-1.62;66.03
69622;BME280;56841;55.964;37.674;2023-01-29T09:33:03;99298.09;;;-1.61;66.73
69622;BME280;56841;55.964;37.674;2023-01-29T09:35:29;99299.53;;;-1.70;66.77
69622;BME280;56841;55.964;37.674;2023-01-29T09:37:55;99298.06;;;-1.74;67.21
69622;BME280;56841;55.964;37.674;2023-01-29T09:43:31;99292.34;;;-1.52;67.03
69622;BME280;56841;55.964;37.674;2023-01-29T09:49:02;99283.81;;;-1.67;66.61
69622;BME280;56841;55.964;37.674;2023-01-29T09:51:36;99266.72;;;-1.70;67.16
69622;BME280;56841;55.964;37.674;2023-01-29T09:54:16;99270.88;;;-1.67;67.07
69622;BME280;56841;55.964;37.674;2023-01-29T09:56:44;99268.41;;;-1.56;66.96
69622;BME280;56841;55.964;37.674;2023-01-29T09:59:12;99268.22;;;-1.53;66.88
69622;BME280;56841;55.964;37.674;2023-01-29T10:02:01;99261.06;;;-1.49;67.00
69622;BME280;56841;55.964;37.674;2023-01-29T10:04:56;99245.66;;;-1.38;66.80
69622;BME280;56841;55.964;37.674;2023-01-29T10:13:10;99219.38;;;-1.19;66.44
69622;BME280;56841;55.964;37.674;2023-01-29T10:21:24;99211.03;;;-1.37;66.40
69622;BME280;56841;55.964;37.674;2023-01-29T10:26:43;99193.97;;;-1.39;66.76
69622;BME280;56841;55.964;37.674;2023-01-29T10:29:15;99185.16;;;-1.50;66.70
69622;BME280;56841;55.964;37.674;2023-01-29T10:31:45;99174.91;;;-1.38;66.52
69622;BME280;56841;55.964;37.674;2023-01-29T10:34:24;99172.84;;;-1.46;66.54
69622;BME280;56841;55.964;37.674;2023-01-29T10:36:53;99163.94;;;-1.29;66.20
69622;BME280;56841;55.964;37.674;2023-01-29T10:39:22;99168.69;;;-1.36;66.12
69622;BME280;56841;55.964;37.674;2023-01-29T10:58:33;99162.78;;;-1.38;65.92
69622;BME280;56841;55.964;37.674;2023-01-29T11:01:01;99150.84;;;-1.40;65.91
69622;BME280;56841;55.964;37.674;2023-01-29T11:03:30;99147.56;;;-1.30;65.24
69622;BME280;56841;55.964;37.674;2023-01-29T11:06:22;99157.28;;;-1.21;65.70
69622;BME280;56841;55.964;37.674;2023-01-29T11:11:32;99136.78;;;-1.36;65.33
69622;BME280;56841;55.964;37.674;2023-01-29T11:14:03;99143.84;;;-1.26;65.04
69622;BME280;56841;55.964;37.674;2023-01-29T11:16:40;99134.50;;;-1.15;64.72
69622;BME280;56841;55.964;37.674;2023-01-29T11:19:06;99141.84;;;-1.48;63.86
69622;BME280;56841;55.964;37.674;2023-01-29T11:21:52;99137.41;;;-1.33;64.62
69622;BME280;56841;55.964;37.674;2023-01-29T11:24:21;99129.53;;;-1.31;64.47
69622;BME280;56841;55.964;37.674;2023-01-29T11:26:47;99124.75;;;-1.25;64.66
69622;BME280;56841;55.964;37.674;2023-01-29T11:31:56;99135.97;;;-1.50;64.40
69622;BME280;56841;55.964;37.674;2023-01-29T11:34:24;99133.25;;;-1.48;64.54
69622;BME280;56841;55.964;37.674;2023-01-29T11:37:03;99130.56;;;-1.47;64.90
69622;BME280;56841;55.964;37.674;2023-01-29T11:39:30;99131.59;;;-1.49;65.36
69622;BME280;56841;55.964;37.674;2023-01-29T11:41:59;99125.41;;;-1.47;65.05
69622;BME280;56841;55.964;37.674;2023-01-29T11:44:26;99127.88;;;-1.45;65.33
69622;BME280;56841;55.964;37.674;2023-01-29T11:46:52;99120.00;;;-1.56;65.38
69622;BME280;56841;55.964;37.674;2023-01-29T11:49:37;99120.50;;;-1.38;65.08
69622;BME280;56841;55.964;37.674;2023-01-29T11:52:06;99111.31;;;-1.42;64.86
69622;BME280;56841;55.964;37.674;2023-01-29T11:54:43;99115.03;;;-1.47;65.53
69622;BME280;56841;55.964;37.674;2023-01-29T11:59:57;99103.22;;;-1.25;65.39
69622;BME280;56841;55.964;37.674;2023-01-29T12:02:37;99101.56;;;-1.39;65.71
69622;BME280;56841;55.964;37.674;2023-01-29T12:05:15;99114.09;;;-1.33;65.62
69622;BME280;56841;55.964;37.674;2023-01-29T12:07:43;99113.78;;;-1.28;65.68
69622;BME280;56841;55.964;37.674;2023-01-29T12:15:39;99106.75;;;-1.26;65.60
69622;BME280;56841;55.964;37.674;2023-01-29T12:18:41;99109.84;;;-1.34;66.18
69622;BME280;56841;55.964;37.674;2023-01-29T12:21:23;99107.56;;;-1.26;66.26
69622;BME280;56841;55.964;37.674;2023-01-29T12:26:46;99114.81;;;-1.18;66.85
69622;BME280;56841;55.964;37.674;2023-01-29T12:40:17;99110.56;;;-1.19;67.16
69622;BME280;56841;55.964;37.674;2023-01-29T12:42:47;99113.97;;;-1.31;67.10
69622;BME280;56841;55.964;37.674;2023-01-29T12:45:20;99115.84;;;-1.21;67.54
69622;BME280;56841;55.964;37.674;2023-01-29T12:47:50;99104.53;;;-1.07;67.19
69622;BME280;56841;55.964;37.674;2023-01-29T12:53:05;99103.69;;;-1.07;67.14
69622;BME280;56841;55.964;37.674;2023-01-29T12:55:48;99103.19;;;-1.12;67.36
69622;BME280;56841;55.964;37.674;2023-01-29T12:58:37;99094.91;;;-1.17;67.58
69622;BME280;56841;55.964;37.674;2023-01-29T13:01:30;99092.94;;;-1.14;67.93
69622;BME280;56841;55.964;37.674;2023-01-29T13:04:25;99085.78;;;-1.23;67.91
69622;BME280;56841;55.964;37.674;2023-01-29T13:06:56;99093.47;;;-1.22;68.15
69622;BME280;56841;55.964;37.674;2023-01-29T13:09:26;99090.06;;;-1.35;68.19
69622;BME280;56841;55.964;37.674;2023-01-29T13:12:02;99081.16;;;-1.44;68.32
69622;BME280;56841;55.964;37.674;2023-01-29T13:14:37;99079.91;;;-1.38;68.75
69622;BME280;56841;55.964;37.674;2023-01-29T13:17:25;99070.91;;;-1.45;69.18
69622;BME280;56841;55.964;37.674;2023-01-29T13:19:55;99077.44;;;-1.52;69.36
69622;BME280;56841;55.964;37.674;2023-01-29T13:22:28;99063.34;;;-1.48;69.39
69622;BME280;56841;55.964;37.674;2023-01-29T13:24:56;99073.91;;;-1.51;69.81
69622;BME280;56841;55.964;37.674;2023-01-29T13:27:27;99063.34;;;-1.48;70.08
69622;BME280;56841;55.964;37.674;2023-01-29T13:29:55;99060.53;;;-1.45;69.92
69622;BME280;56841;55.964;37.674;2023-01-29T13:32:26;99059.09;;;-1.49;69.94
69622;BME280;56841;55.964;37.674;2023-01-29T13:34:57;99062.31;;;-1.46;70.49
69622;BME280;56841;55.964;37.674;2023-01-29T13:37:28;99064.69;;;-1.55;70.37
69622;BME280;56841;55.964;37.674;2023-01-29T13:39:57;99070.69;;;-1.55;70.32
69622;BME280;56841;55.964;37.674;2023-01-29T13:42:41;99065.50;;;-1.55;70.43
69622;BME280;56841;55.964;37.674;2023-01-29T13:45:13;99044.81;;;-1.55;70.51
69622;BME280;56841;55.964;37.674;2023-01-29T13:47:43;99049.88;;;-1.53;70.53
69622;BME280;56841;55.964;37.674;2023-01-29T13:52:40;99054.34;;;-1.55;70.81
69622;BME280;56841;55.964;37.674;2023-01-29T14:11:32;99049.78;;;-1.52;71.31
69622;BME280;56841;55.964;37.674;2023-01-29T14:13:59;99054.41;;;-1.44;71.24
69622;BME280;56841;55.964;37.674;2023-01-29T14:16:31;99041.69;;;-1.47;71.54
69622;BME280;56841;55.964;37.674;2023-01-29T14:19:02;99048.53;;;-1.59;72.27
69622;BME280;56841;55.964;37.674;2023-01-29T14:21:34;99051.94;;;-1.71;73.25
69622;BME280;56841;55.964;37.674;2023-01-29T14:26:46;99035.09;;;-1.64;74.66
69622;BME280;56841;55.964;37.674;2023-01-29T14:29:22;99040.97;;;-1.75;75.23
69622;BME280;56841;55.964;37.674;2023-01-29T14:36:59;99035.19;;;-1.78;76.34
69622;BME280;56841;55.964;37.674;2023-01-29T14:39:33;99032.19;;;-1.85;76.16
69622;BME280;56841;55.964;37.674;2023-01-29T14:42:02;99037.06;;;-1.80;76.05
69622;BME280;56841;55.964;37.674;2023-01-29T14:53:13;99025.75;;;-1.79;75.45
69622;BME280;56841;55.964;37.674;2023-01-29T14:56:03;99028.56;;;-1.82;75.65
69622;BME280;56841;55.964;37.674;2023-01-29T15:01:31;99032.59;;;-1.78;76.10
69622;BME280;56841;55.964;37.674;2023-01-29T15:14:42;99026.91;;;-1.96;78.57
69622;BME280;56841;55.964;37.674;2023-01-29T15:17:18;99028.53;;;-1.95;79.54
69622;BME280;56841;55.964;37.674;2023-01-29T15:19:47;99042.63;;;-1.99;79.99
69622;BME280;56841;55.964;37.674;2023-01-29T15:22:16;99034.34;;;-2.04;80.93
69622;BME280;56841;55.964;37.674;2023-01-29T15:24:44;99032.59;;;-2.04;82.01
69622;BME280;56841;55.964;37.674;2023-01-29T15:27:18;99028.88;;;-2.00;82.47
69622;BME280;56841;55.964;37.674;2023-01-29T15:29:56;99031.78;;;-2.04;83.41
69622;BME280;56841;55.964;37.674;2023-01-29T15:32:30;99025.78;;;-2.05;83.28
69622;BME280;56841;55.964;37.674;2023-01-29T15:34:57;99035.19;;;-2.04;83.26
69622;BME280;56841;55.964;37.674;2023-01-29T15:37:34;99030.00;;;-2.04;83.67
69622;BME280;56841;55.964;37.674;2023-01-29T15:40:01;99028.44;;;-2.06;84.05
69622;BME280;56841;55.964;37.674;2023-01-29T15:42:40;99011.28;;;-2.07;84.22
69622;BME280;56841;55.964;37.674;2023-01-29T15:45:20;99016.97;;;-2.02;84.98
69622;BME280;56841;55.964;37.674;2023-01-29T15:47:47;99016.75;;;-1.99;85.12
69622;BME280;56841;55.964;37.674;2023-01-29T15:50:13;99021.81;;;-2.10;85.38
69622;BME280;56841;55.964;37.674;2023-01-29T15:52:39;99023.06;;;-2.03;85.58
69622;BME280;56841;55.964;37.674;2023-01-29T15:55:04;99031.84;;;-2.06;86.01